createdAt,value
2023-04-29T00:00:09.855Z,5.67
2023-04-29T00:02:38.346Z,5.60
2023-04-29T00:05:07.302Z,5.10
2023-04-29T00:07:36.482Z,5.43
2023-04-29T00:10:04.719Z,5.53
2023-04-29T00:12:33.457Z,5.43
2023-04-29T00:15:03.012Z,5.13
2023-04-29T00:17:32.215Z,5.40
2023-04-29T00:19:59.934Z,5.50
2023-04-29T00:22:27.965Z,5.00
2023-04-29T00:24:55.707Z,5.83
2023-04-29T00:27:23.420Z,5.60
2023-04-29T00:29:51.261Z,5.80
2023-04-29T00:32:19.120Z,5.60
2023-04-29T00:34:48.433Z,5.80
2023-04-29T00:37:16.328Z,5.30
2023-04-29T00:39:44.073Z,6.17
2023-04-29T00:42:12.822Z,6.13
2023-04-29T00:44:40.918Z,5.97
2023-04-29T00:47:11.430Z,5.73
2023-04-29T00:49:39.784Z,5.77
2023-04-29T00:52:09.207Z,6.17
2023-04-29T00:54:38.082Z,6.03
2023-04-29T00:57:07.258Z,6.00
2023-04-29T00:59:35.056Z,6.57
2023-04-29T01:02:04.017Z,6.50
2023-04-29T01:04:31.960Z,6.83
2023-04-29T01:07:06.332Z,6.33
2023-04-29T01:09:48.948Z,6.90
2023-04-29T01:12:22.777Z,6.93
2023-04-29T01:15:02.834Z,7.13
2023-04-29T01:17:37.454Z,6.87
2023-04-29T01:20:07.891Z,7.00
2023-04-29T01:22:35.641Z,6.17
2023-04-29T01:25:05.939Z,7.40
2023-04-29T01:27:38.534Z,7.17
2023-04-29T01:30:17.615Z,6.73
2023-04-29T01:32:54.647Z,6.27
2023-04-29T01:35:35.203Z,6.90
2023-04-29T01:38:14.955Z,7.30
2023-04-29T01:40:49.974Z,7.23
2023-04-29T01:43:19.381Z,6.77
2023-04-29T01:45:47.198Z,7.37
2023-04-29T01:48:15.807Z,6.80
2023-04-29T01:50:43.859Z,6.57
2023-04-29T01:53:11.579Z,7.37
2023-04-29T01:55:39.326Z,7.10
2023-04-29T01:58:08.562Z,6.67
2023-04-29T02:00:36.500Z,7.30
2023-04-29T02:03:04.274Z,6.90
2023-04-29T02:05:34.044Z,6.97
2023-04-29T02:08:02.678Z,6.87
2023-04-29T02:10:30.867Z,6.53
2023-04-29T02:12:58.611Z,7.23
2023-04-29T02:15:29.420Z,7.33
2023-04-29T02:17:57.154Z,7.47
2023-04-29T02:20:24.887Z,7.17
2023-04-29T02:22:52.631Z,6.60
2023-04-29T02:25:20.384Z,7.07
2023-04-29T02:27:48.096Z,6.33
2023-04-29T02:30:15.858Z,7.93
2023-04-29T02:32:44.970Z,6.70
2023-04-29T02:35:12.743Z,6.53
2023-04-29T02:37:40.466Z,6.40
2023-04-29T02:40:09.493Z,6.70
2023-04-29T02:42:37.988Z,7.00
2023-04-29T02:45:06.696Z,6.90
2023-04-29T02:47:34.467Z,7.10
2023-04-29T02:50:04.762Z,6.30
2023-04-29T02:52:32.607Z,6.30
2023-04-29T02:55:00.306Z,7.40
2023-04-29T02:57:29.602Z,6.37
2023-04-29T02:59:57.444Z,6.83
2023-04-29T03:02:25.306Z,6.17
2023-04-29T03:04:53.367Z,6.33
2023-04-29T03:07:22.675Z,7.13
2023-04-29T03:09:50.709Z,7.13
2023-04-29T03:12:18.568Z,7.07
2023-04-29T03:14:46.269Z,6.80
2023-04-29T03:17:14.130Z,6.73
2023-04-29T03:19:41.978Z,6.53
2023-04-29T03:22:10.600Z,6.83
2023-04-29T03:24:39.853Z,7.03
2023-04-29T03:27:07.579Z,7.50
2023-04-29T03:29:35.328Z,6.77
2023-04-29T03:32:03.111Z,7.20
2023-04-29T03:34:31.315Z,7.00
2023-04-29T03:36:59.073Z,6.93
2023-04-29T03:39:28.238Z,6.20
2023-04-29T03:41:57.326Z,6.37
2023-04-29T03:44:25.137Z,7.00
2023-04-29T03:46:52.938Z,6.77
2023-04-29T03:49:20.665Z,6.33
2023-04-29T03:51:48.489Z,6.60
2023-04-29T03:54:16.218Z,6.00
2023-04-29T03:56:44.419Z,6.10
2023-04-29T03:59:13.506Z,6.47
2023-04-29T04:01:41.287Z,6.87
2023-04-29T04:04:09.159Z,6.03
2023-04-29T04:06:37.075Z,7.10
2023-04-29T04:09:04.946Z,6.27
2023-04-29T04:11:32.661Z,6.57
2023-04-29T04:14:00.622Z,5.67
2023-04-29T04:16:29.717Z,6.60
2023-04-29T04:18:57.445Z,6.27
2023-04-29T04:21:25.350Z,5.93
2023-04-29T04:23:53.278Z,6.30
2023-04-29T04:26:21.632Z,6.13
2023-04-29T04:28:49.527Z,5.83
2023-04-29T04:31:17.332Z,5.90
2023-04-29T04:33:46.448Z,6.17
2023-04-29T04:36:14.199Z,6.33
2023-04-29T04:38:41.918Z,6.07
2023-04-29T04:41:09.698Z,5.90
2023-04-29T04:43:37.467Z,5.93
2023-04-29T04:46:11.799Z,6.57
2023-04-29T04:48:39.636Z,6.70
2023-04-29T04:51:11.934Z,5.80
2023-04-29T04:53:40.389Z,6.33
2023-04-29T04:56:08.821Z,6.63
2023-04-29T04:58:36.596Z,5.67
2023-04-29T05:01:04.421Z,6.20
2023-04-29T05:03:32.417Z,6.40
2023-04-29T05:06:01.441Z,6.20
2023-04-29T05:08:30.547Z,6.13
2023-04-29T05:10:58.638Z,6.20
2023-04-29T05:13:26.866Z,5.70
2023-04-29T05:15:54.620Z,5.50
2023-04-29T05:18:22.384Z,5.73
2023-04-29T05:20:50.135Z,5.37
2023-04-29T05:23:17.953Z,5.13
2023-04-29T05:25:47.092Z,4.97
2023-04-29T05:28:14.863Z,5.00
2023-04-29T05:30:43.846Z,5.13
2023-04-29T05:33:12.066Z,5.63
2023-04-29T05:35:39.844Z,5.40
2023-04-29T05:38:07.568Z,5.43
2023-04-29T05:40:35.373Z,5.00
2023-04-29T05:43:04.492Z,4.63
2023-04-29T05:45:32.206Z,5.37
2023-04-29T05:47:59.969Z,5.27
2023-04-29T05:50:27.733Z,4.50
2023-04-29T05:52:56.737Z,5.33
2023-04-29T05:55:25.063Z,4.97
2023-04-29T05:57:52.802Z,5.90
2023-04-29T06:00:22.273Z,6.40
2023-04-29T06:02:58.034Z,5.87
2023-04-29T06:05:27.918Z,5.63
2023-04-29T06:07:56.040Z,6.77
2023-04-29T06:10:23.795Z,5.77
2023-04-29T06:12:51.914Z,5.53
2023-04-29T06:15:21.087Z,7.43
2023-04-29T06:17:49.583Z,5.70
2023-04-29T06:20:18.258Z,5.17
2023-04-29T06:22:46.296Z,9.73
2023-04-29T06:25:14.186Z,7.97
2023-04-29T06:27:42.073Z,5.63
2023-04-29T06:30:11.542Z,8.70
2023-04-29T06:32:41.222Z,5.97
2023-04-29T06:35:09.754Z,6.13
2023-04-29T06:37:38.254Z,5.43
2023-04-29T06:40:07.525Z,5.70
2023-04-29T06:42:35.280Z,5.77
2023-04-29T06:45:03.350Z,5.77
2023-04-29T06:47:31.110Z,5.17
2023-04-29T06:50:00.214Z,5.17
2023-04-29T06:52:27.946Z,5.23
2023-04-29T06:54:55.666Z,5.57
2023-04-29T06:57:23.405Z,5.60
2023-04-29T06:59:51.484Z,5.83
2023-04-29T07:02:19.496Z,4.70
2023-04-29T07:04:49.057Z,5.13
2023-04-29T07:07:18.247Z,5.20
2023-04-29T07:09:46.046Z,5.10
2023-04-29T07:12:13.771Z,4.57
2023-04-29T07:14:41.961Z,4.60
2023-04-29T07:17:10.945Z,5.10
2023-04-29T07:19:40.505Z,5.60
2023-04-29T07:22:08.240Z,5.10
2023-04-29T07:24:37.304Z,6.93
2023-04-29T07:27:05.354Z,6.13
2023-04-29T07:29:34.168Z,5.07
2023-04-29T07:32:01.898Z,4.67
2023-04-29T07:34:29.636Z,5.00
2023-04-29T07:36:57.416Z,5.83
2023-04-29T07:39:25.469Z,5.13
2023-04-29T07:41:54.532Z,5.57
2023-04-29T07:44:22.434Z,5.10
2023-04-29T07:46:50.164Z,5.33
2023-04-29T07:49:17.894Z,4.27
2023-04-29T07:51:45.780Z,4.93
2023-04-29T07:54:13.527Z,5.20
2023-04-29T07:56:41.249Z,4.53
2023-04-29T07:59:10.323Z,4.87
2023-04-29T08:01:38.515Z,4.90
2023-04-29T08:04:07.566Z,5.07
2023-04-29T08:06:36.127Z,5.20
2023-04-29T08:09:04.287Z,5.17
2023-04-29T08:11:32.078Z,5.23
2023-04-29T08:14:00.256Z,5.27
2023-04-29T08:16:29.597Z,5.80
2023-04-29T08:18:57.436Z,6.67
2023-04-29T08:21:25.424Z,7.40
2023-04-29T08:23:53.520Z,6.30
2023-04-29T08:26:24.023Z,5.87
2023-04-29T08:28:51.883Z,7.30
2023-04-29T08:31:19.775Z,6.80
2023-04-29T08:33:49.272Z,6.37
2023-04-29T08:36:17.029Z,5.70
2023-04-29T08:38:44.771Z,6.27
2023-04-29T08:41:15.323Z,6.30
2023-04-29T08:43:43.128Z,6.27
2023-04-29T08:46:11.899Z,6.20
2023-04-29T08:48:44.212Z,6.23
2023-04-29T08:51:15.329Z,6.10
2023-04-29T08:53:43.091Z,5.77
2023-04-29T08:56:17.066Z,4.93
2023-04-29T08:58:46.528Z,5.33
2023-04-29T09:01:15.406Z,6.30
2023-04-29T09:03:51.178Z,6.17
2023-04-29T09:06:21.529Z,6.73
2023-04-29T09:08:49.562Z,5.77
2023-04-29T09:11:17.768Z,6.00
2023-04-29T09:13:45.618Z,5.80
2023-04-29T09:16:13.991Z,5.83
2023-04-29T09:18:46.774Z,6.00
2023-04-29T09:21:16.089Z,10.23
2023-04-29T09:23:45.782Z,6.33
2023-04-29T09:26:13.689Z,5.57
2023-04-29T09:28:43.758Z,6.13
2023-04-29T09:31:12.657Z,5.13
2023-04-29T09:33:54.599Z,5.90
2023-04-29T09:36:41.562Z,5.50
2023-04-29T09:39:15.155Z,5.90
2023-04-29T09:41:57.917Z,5.43
2023-04-29T09:44:26.858Z,5.30
2023-04-29T09:46:58.344Z,5.50
2023-04-29T09:49:28.337Z,5.40
2023-04-29T09:51:57.929Z,5.00
2023-04-29T09:54:29.533Z,5.00
2023-04-29T09:56:59.068Z,5.37
2023-04-29T09:59:27.430Z,4.43
2023-04-29T10:01:56.820Z,5.17
2023-04-29T10:04:26.978Z,4.83
2023-04-29T10:06:56.522Z,4.97
2023-04-29T10:09:24.998Z,4.93
2023-04-29T10:11:55.044Z,4.70
2023-04-29T10:14:24.813Z,5.07
2023-04-29T10:17:00.516Z,5.20
2023-04-29T10:19:36.216Z,5.33
2023-04-29T10:22:11.044Z,5.00
2023-04-29T10:24:40.104Z,4.90
2023-04-29T10:27:12.382Z,5.30
2023-04-29T10:29:41.526Z,6.37
2023-04-29T10:32:10.969Z,5.83
2023-04-29T10:34:40.687Z,4.87
2023-04-29T10:37:10.994Z,4.60
2023-04-29T10:39:46.933Z,4.50
2023-04-29T10:42:31.840Z,4.67
2023-04-29T10:45:18.572Z,4.40
2023-04-29T10:48:11.874Z,5.03
2023-04-29T10:51:04.397Z,5.20
2023-04-29T10:53:32.401Z,5.40
2023-04-29T10:56:05.610Z,4.83
2023-04-29T10:58:47.606Z,5.13
2023-04-29T11:01:16.949Z,4.90
2023-04-29T11:03:55.538Z,5.33
2023-04-29T11:06:25.075Z,5.90
2023-04-29T11:09:03.582Z,5.37
2023-04-29T11:12:05.728Z,5.07
2023-04-29T11:14:39.845Z,8.53
2023-04-29T11:17:10.848Z,5.33
2023-04-29T11:19:42.816Z,5.40
2023-04-29T11:22:13.909Z,5.27
2023-04-29T11:24:56.996Z,6.60
2023-04-29T11:27:26.496Z,5.70
2023-04-29T11:29:58.696Z,5.30
2023-04-29T11:32:27.394Z,5.63
2023-04-29T11:34:55.786Z,5.33
2023-04-29T11:37:26.396Z,5.47
2023-04-29T11:40:00.543Z,5.30
2023-04-29T11:42:28.766Z,5.83
2023-04-29T11:44:59.505Z,5.77
2023-04-29T11:47:29.324Z,5.97
2023-04-29T11:50:04.929Z,5.33
2023-04-29T11:52:33.193Z,5.07
2023-04-29T11:55:01.089Z,6.00
2023-04-29T11:57:28.918Z,5.20
2023-04-29T11:59:58.494Z,6.97
2023-04-29T12:02:30.815Z,5.90
2023-04-29T12:05:01.224Z,6.13
2023-04-29T12:07:29.348Z,5.57
2023-04-29T12:09:57.891Z,6.37
2023-04-29T12:12:27.576Z,5.90
2023-04-29T12:14:56.067Z,5.40
2023-04-29T12:17:25.701Z,5.87
2023-04-29T12:19:53.550Z,5.33
2023-04-29T12:22:21.745Z,5.43
2023-04-29T12:24:50.853Z,5.90
2023-04-29T12:27:19.042Z,4.90
2023-04-29T12:29:47.867Z,5.27
2023-04-29T12:32:18.491Z,5.27
2023-04-29T12:34:47.937Z,7.00
2023-04-29T12:37:16.394Z,5.70
2023-04-29T12:39:44.124Z,6.20
2023-04-29T12:42:16.898Z,6.60
2023-04-29T12:44:47.512Z,5.50
2023-04-29T12:47:16.322Z,5.97
2023-04-29T12:49:44.791Z,5.67
2023-04-29T12:52:14.275Z,5.90
2023-04-29T12:54:43.807Z,5.83
2023-04-29T12:57:12.870Z,6.33
2023-04-29T12:59:41.258Z,6.20
2023-04-29T13:02:09.472Z,6.20
2023-04-29T13:04:38.106Z,5.87
2023-04-29T13:07:07.268Z,5.87
2023-04-29T13:09:38.129Z,5.40
2023-04-29T13:12:09.573Z,5.37
2023-04-29T13:14:37.452Z,5.57
2023-04-29T13:17:05.235Z,4.77
2023-04-29T13:19:48.204Z,5.43
2023-04-29T13:22:19.092Z,5.20
2023-04-29T13:24:48.370Z,5.27
2023-04-29T13:27:16.138Z,4.40
2023-04-29T13:29:43.950Z,3.70
2023-04-29T13:32:11.997Z,3.10
2023-04-29T13:34:43.148Z,2.73
2023-04-29T13:37:11.006Z,3.40
2023-04-29T13:39:38.983Z,3.30
2023-04-29T13:42:08.979Z,3.40
2023-04-29T13:44:50.893Z,3.70
2023-04-29T13:47:25.748Z,6.27
2023-04-29T13:50:33.966Z,4.73
2023-04-29T13:58:28.926Z,6.50
2023-04-29T14:01:05.274Z,5.67
2023-04-29T14:03:20.783Z,6.23
2023-04-29T14:05:48.676Z,5.90
2023-04-29T14:08:16.477Z,5.70
2023-04-29T14:10:44.229Z,5.00
2023-04-29T14:13:13.446Z,6.20
2023-04-29T14:15:41.248Z,5.83
2023-04-29T14:18:09.844Z,6.37
2023-04-29T14:20:37.573Z,6.80
2023-04-29T14:23:05.286Z,6.30
2023-04-29T14:25:33.959Z,6.63
2023-04-29T14:28:01.838Z,6.20
2023-04-29T14:30:31.221Z,6.30
2023-04-29T14:32:59.054Z,6.33
2023-04-29T14:35:26.785Z,6.30
2023-04-29T14:37:54.502Z,6.53
2023-04-29T14:40:22.408Z,6.10
2023-04-29T14:42:51.206Z,6.17
2023-04-29T14:45:18.952Z,6.00
2023-04-29T14:47:48.160Z,5.40
2023-04-29T14:50:16.241Z,6.20
2023-04-29T14:52:43.957Z,5.50
2023-04-29T14:55:11.742Z,5.27
2023-04-29T14:57:39.466Z,5.47
2023-04-29T15:00:08.784Z,5.50
2023-04-29T15:02:36.590Z,5.50
2023-04-29T15:05:06.145Z,5.73
2023-04-29T15:07:33.955Z,5.33
2023-04-29T15:10:01.840Z,5.43
2023-04-29T15:12:29.592Z,5.83
2023-04-29T15:14:57.335Z,5.17
2023-04-29T15:17:25.564Z,11.20
2023-04-29T15:19:53.381Z,5.40
2023-04-29T15:22:22.494Z,5.33
2023-04-29T15:24:52.131Z,5.23
2023-04-29T15:27:19.889Z,4.87
2023-04-29T15:29:47.913Z,4.93
2023-04-29T15:32:16.050Z,5.60
2023-04-29T15:34:43.860Z,5.33
2023-04-29T15:37:11.558Z,4.93
2023-04-29T15:39:40.820Z,5.33
2023-04-29T15:42:09.536Z,5.00
2023-04-29T15:44:37.269Z,4.67
2023-04-29T15:47:04.983Z,4.67
2023-04-29T15:49:32.827Z,4.97
2023-04-29T15:52:01.012Z,4.97
2023-04-29T15:54:28.731Z,3.90
2023-04-29T15:56:58.588Z,4.93
2023-04-29T15:59:26.447Z,3.80
2023-04-29T16:01:54.204Z,3.50
2023-04-29T16:04:22.051Z,3.27
2023-04-29T16:06:49.875Z,2.40
2023-04-29T16:09:17.579Z,6.10
2023-04-29T16:11:45.856Z,4.20
2023-04-29T16:14:14.964Z,2.53
2023-04-29T16:16:42.816Z,2.70
2023-04-29T16:19:10.586Z,1.93
2023-04-29T16:21:38.753Z,2.10
2023-04-29T16:24:07.830Z,2.80
2023-04-29T16:26:36.873Z,2.10
2023-04-29T16:29:04.963Z,1.80
2023-04-29T16:31:34.201Z,2.07
2023-04-29T16:34:03.204Z,1.70
2023-04-29T16:36:31.132Z,1.80
2023-04-29T16:38:59.074Z,1.60
2023-04-29T16:41:27.118Z,2.13
2023-04-29T16:43:54.863Z,1.80
2023-04-29T16:46:22.761Z,1.70
2023-04-29T16:48:56.573Z,2.07
2023-04-29T16:51:26.295Z,1.80
2023-04-29T16:53:54.257Z,1.70
2023-04-29T16:56:22.733Z,1.70
2023-04-29T16:58:50.522Z,1.90
2023-04-29T17:01:19.694Z,2.13
2023-04-29T17:03:48.136Z,1.90
2023-04-29T17:06:17.436Z,2.10
2023-04-29T17:08:45.720Z,1.90
2023-04-29T17:11:13.704Z,1.83
2023-04-29T17:13:41.473Z,2.03
2023-04-29T17:16:09.433Z,1.90
2023-04-29T17:18:37.645Z,1.60
2023-04-29T17:21:05.828Z,1.80
2023-04-29T17:23:34.951Z,2.03
2023-04-29T17:26:03.079Z,3.60
2023-04-29T17:28:30.839Z,1.70
2023-04-29T17:31:01.087Z,2.10
2023-04-29T17:33:34.065Z,1.70
2023-04-29T17:36:02.273Z,1.50
2023-04-29T17:38:30.231Z,1.70
2023-04-29T17:40:59.341Z,1.33
2023-04-29T17:43:27.300Z,1.63
2023-04-29T17:45:55.134Z,1.50
2023-04-29T17:48:22.913Z,1.87
2023-04-29T17:50:50.669Z,1.63
2023-04-29T17:53:18.394Z,1.80
2023-04-29T17:55:46.233Z,1.73
2023-04-29T17:58:15.366Z,1.40
2023-04-29T18:00:43.137Z,1.90
2023-04-29T18:03:10.979Z,1.60
2023-04-29T18:05:38.847Z,1.53
2023-04-29T18:08:06.771Z,1.83
2023-04-29T18:10:34.463Z,1.33
2023-04-29T18:13:03.283Z,1.53
2023-04-29T18:15:32.516Z,1.53
2023-04-29T18:18:00.278Z,1.73
2023-04-29T18:20:28.069Z,1.57
2023-04-29T18:22:55.945Z,1.60
2023-04-29T18:25:23.720Z,1.50
2023-04-29T18:27:56.963Z,1.37
2023-04-29T18:30:27.900Z,1.40
2023-04-29T18:32:57.203Z,1.20
2023-04-29T18:35:25.191Z,1.10
2023-04-29T18:37:52.941Z,1.13
2023-04-29T18:40:20.781Z,1.63
2023-04-29T18:42:48.900Z,1.27
2023-04-29T18:45:16.639Z,1.87
2023-04-29T18:47:44.416Z,1.23
2023-04-29T18:50:14.095Z,1.67
2023-04-29T18:52:42.600Z,1.43
2023-04-29T18:55:11.071Z,1.23
2023-04-29T18:57:38.813Z,1.70
2023-04-29T19:00:08.586Z,1.57
2023-04-29T19:02:37.294Z,1.83
2023-04-29T19:05:09.241Z,1.40
2023-04-29T19:07:38.826Z,1.70
2023-04-29T19:10:07.642Z,1.50
2023-04-29T19:12:35.452Z,1.50
2023-04-29T19:15:03.176Z,1.40
2023-04-29T19:17:30.938Z,1.40
2023-04-29T19:19:58.661Z,2.03
2023-04-29T19:22:27.706Z,2.77
2023-04-29T19:24:56.846Z,1.70
2023-04-29T19:27:24.629Z,1.60
2023-04-29T19:29:52.513Z,1.30
2023-04-29T19:32:20.830Z,1.43
2023-04-29T19:34:49.020Z,1.70
2023-04-29T19:37:16.784Z,1.43
2023-04-29T19:39:44.537Z,1.17
2023-04-29T19:42:13.676Z,1.37
2023-04-29T19:44:41.432Z,2.13
2023-04-29T19:47:09.179Z,1.93
2023-04-29T19:49:37.795Z,1.50
2023-04-29T19:52:06.800Z,1.33
2023-04-29T19:54:34.975Z,1.60
2023-04-29T19:57:03.140Z,1.30
2023-04-29T19:59:32.227Z,1.30
2023-04-29T20:02:00.025Z,1.60
2023-04-29T20:04:27.802Z,1.53
2023-04-29T20:06:55.572Z,1.47
2023-04-29T20:09:23.298Z,1.90
2023-04-29T20:11:51.078Z,1.77
2023-04-29T20:14:18.802Z,1.87
2023-04-29T20:16:48.031Z,1.40
2023-04-29T20:19:15.852Z,1.60
2023-04-29T20:21:43.604Z,1.93
2023-04-29T20:24:11.320Z,1.83
2023-04-29T20:26:39.060Z,2.03
2023-04-29T20:29:06.812Z,1.90
2023-04-29T20:31:34.611Z,2.60
2023-04-29T20:34:03.743Z,2.80
2023-04-29T20:36:31.897Z,2.10
2023-04-29T20:38:59.623Z,1.77
2023-04-29T20:41:29.060Z,1.93
2023-04-29T20:43:58.559Z,1.60
2023-04-29T20:46:26.386Z,2.30
2023-04-29T20:48:54.129Z,2.10
2023-04-29T20:51:23.229Z,1.57
2023-04-29T20:53:51.151Z,1.70
2023-04-29T20:56:18.919Z,2.53
2023-04-29T20:58:46.651Z,1.67
2023-04-29T21:01:14.544Z,1.90
2023-04-29T21:03:42.289Z,1.70
2023-04-29T21:06:10.041Z,2.07
2023-04-29T21:08:39.230Z,1.77
2023-04-29T21:11:07.803Z,1.80
2023-04-29T21:13:36.233Z,2.13
2023-04-29T21:16:04.353Z,1.80
2023-04-29T21:18:32.104Z,1.80
2023-04-29T21:20:59.819Z,1.80
2023-04-29T21:23:27.550Z,2.00
2023-04-29T21:25:56.664Z,2.30
2023-04-29T21:28:24.412Z,1.87
2023-04-29T21:30:52.153Z,1.70
2023-04-29T21:33:19.973Z,2.33
2023-04-29T21:35:51.284Z,2.00
2023-04-29T21:38:19.055Z,1.90
2023-04-29T21:40:48.499Z,2.07
2023-04-29T21:43:18.535Z,2.10
2023-04-29T21:45:46.698Z,2.10
2023-04-29T21:48:15.996Z,1.90
2023-04-29T21:50:44.624Z,2.00
2023-04-29T21:53:15.808Z,2.07
2023-04-29T21:55:44.281Z,1.70
2023-04-29T21:58:12.102Z,2.03
2023-04-29T22:00:47.971Z,2.10
2023-04-29T22:03:16.115Z,2.43
2023-04-29T22:05:44.007Z,2.40
2023-04-29T22:08:11.754Z,2.53
2023-04-29T22:10:41.426Z,2.93
2023-04-29T22:13:09.296Z,2.13
2023-04-29T22:15:37.239Z,2.50
2023-04-29T22:18:06.757Z,2.43
2023-04-29T22:20:34.584Z,2.60
2023-04-29T22:23:02.304Z,3.20
2023-04-29T22:25:30.099Z,2.63
2023-04-29T22:27:57.842Z,2.00
2023-04-29T22:30:25.592Z,2.57
2023-04-29T22:32:53.360Z,2.60
2023-04-29T22:35:22.732Z,2.63
2023-04-29T22:37:50.494Z,2.63
2023-04-29T22:40:18.464Z,2.10
2023-04-29T22:42:46.350Z,2.83
2023-04-29T22:45:14.077Z,2.73
2023-04-29T22:47:43.122Z,2.63
2023-04-29T22:50:11.641Z,2.37
2023-04-29T22:52:41.116Z,3.00
2023-04-29T22:55:09.707Z,2.60
2023-04-29T22:57:37.502Z,2.60
2023-04-29T23:00:07.137Z,2.50
2023-04-29T23:02:34.926Z,2.30
2023-04-29T23:05:03.560Z,2.10
2023-04-29T23:07:31.427Z,2.00
2023-04-29T23:10:00.561Z,1.87
2023-04-29T23:12:28.324Z,1.90
2023-04-29T23:14:56.600Z,1.90
2023-04-29T23:17:24.439Z,1.90
2023-04-29T23:19:52.547Z,2.30
2023-04-29T23:22:20.531Z,2.50
2023-04-29T23:24:48.757Z,2.30
2023-04-29T23:27:17.871Z,2.50
2023-04-29T23:29:45.571Z,2.27
2023-04-29T23:32:13.272Z,2.30
2023-04-29T23:34:41.018Z,2.50
2023-04-29T23:37:09.043Z,2.70
2023-04-29T23:39:36.754Z,2.93
2023-04-29T23:42:04.523Z,2.47
2023-04-29T23:44:33.859Z,2.17
2023-04-29T23:47:01.596Z,2.17
2023-04-29T23:49:29.561Z,2.33
2023-04-29T23:51:57.339Z,2.43
2023-04-29T23:54:25.110Z,2.30
2023-04-29T23:56:52.836Z,2.77
2023-04-29T23:59:20.608Z,2.90
